Time;durP1;ratioP1;P1;durP2;ratioP2;P2;SDS_P1;SDS_P2;PMS_P1;PMS_P2;Temp;Humidity;BMP_temperature;BMP_pressure;BME280_temperature;BME280_humidity;BME280_pressure;Samples;Min_cycle;Max_cycle;Signal;HPM_P1;HPM_P2
2022/07/28 00:02:24;;;;;;;1.98;1.55;;;20.50;53.90;;;;;;4996605;28;20031;-77
2022/07/28 00:04:49;;;;;;;5.03;1.20;;;20.40;53.90;;;;;;4997965;28;20389;-77
2022/07/28 00:07:15;;;;;;;8.45;1.58;;;20.40;54.40;;;;;;4997325;28;20026;-77
2022/07/28 00:09:40;;;;;;;3.33;1.52;;;20.40;54.20;;;;;;4997213;28;20030;-77
2022/07/28 00:12:06;;;;;;;3.13;1.65;;;20.30;54.60;;;;;;4997740;28;20044;-77
2022/07/28 00:14:33;;;;;;;1.77;1.10;;;20.30;54.80;;;;;;5012709;28;20109;-77
2022/07/28 00:16:58;;;;;;;6.80;1.85;;;20.30;54.50;;;;;;4997641;28;20586;-77
2022/07/28 00:19:24;;;;;;;5.28;1.60;;;20.20;54.90;;;;;;4997276;28;20476;-77
2022/07/28 00:21:50;;;;;;;2.22;1.10;;;20.20;55.10;;;;;;4997726;28;20023;-78
2022/07/28 00:24:16;;;;;;;4.75;1.70;;;20.10;55.40;;;;;;4996931;28;20034;-77
2022/07/28 00:26:42;;;;;;;3.17;1.35;;;20.00;55.80;;;;;;4996848;28;20513;-77
2022/07/28 00:29:07;;;;;;;4.93;1.98;;;20.00;55.60;;;;;;4997409;28;20041;-77
2022/07/28 00:31:33;;;;;;;4.30;1.45;;;20.00;56.00;;;;;;4996102;28;20107;-77
2022/07/28 00:33:59;;;;;;;3.08;1.40;;;20.00;56.10;;;;;;5011888;28;20023;-77
2022/07/28 00:36:25;;;;;;;3.50;1.60;;;20.00;55.90;;;;;;4996271;28;20037;-77
2022/07/28 00:38:50;;;;;;;4.05;1.35;;;20.10;56.00;;;;;;4996660;28;20037;-77
2022/07/28 00:41:19;;;;;;;3.65;1.55;;;20.10;56.10;;;;;;4997263;28;20035;-77
2022/07/28 00:43:48;;;;;;;4.13;1.25;;;20.00;55.90;;;;;;4996617;28;20032;-77
2022/07/28 00:46:19;;;;;;;3.05;1.52;;;20.10;55.90;;;;;;4997186;28;20046;-77
2022/07/28 00:48:48;;;;;;;3.95;1.58;;;20.10;56.10;;;;;;4996718;28;20045;-77
2022/07/28 00:51:16;;;;;;;3.67;1.33;;;20.10;56.00;;;;;;4997025;28;20022;-77
2022/07/28 00:53:43;;;;;;;5.25;1.50;;;20.10;56.20;;;;;;4997025;28;20033;-77
2022/07/28 00:56:09;;;;;;;6.85;2.25;;;20.10;56.50;;;;;;4996486;28;20109;-77
2022/07/28 00:58:36;;;;;;;3.55;1.55;;;20.10;56.20;;;;;;4996110;28;20110;-77
2022/07/28 01:01:06;;;;;;;3.95;1.45;;;20.10;56.00;;;;;;4996294;28;20027;-77
2022/07/28 01:03:32;;;;;;;6.38;1.90;;;20.10;56.40;;;;;;4996965;28;20049;-78
2022/07/28 01:05:58;;;;;;;1.95;1.40;;;20.00;56.60;;;;;;4996843;28;20034;-77
2022/07/28 01:08:54;;;;;;;2.42;1.70;;;20.00;56.50;;;;;;4996207;28;20026;-77
2022/07/28 01:12:02;;;;;;;2.17;1.23;;;20.00;56.90;;;;;;4996628;28;20026;-77
2022/07/28 01:14:39;;;;;;;2.45;1.70;;;20.00;56.90;;;;;;4975611;28;20489;-78
2022/07/28 01:17:15;;;;;;;3.03;1.40;;;20.00;57.10;;;;;;4991125;28;20413;-77
2022/07/28 01:20:10;;;;;;;4.82;1.33;;;19.90;57.30;;;;;;4996383;28;20023;-77
2022/07/28 01:22:44;;;;;;;4.90;1.63;;;19.90;56.80;;;;;;4991122;28;20183;-77
2022/07/28 01:25:24;;;;;;;1.95;1.50;;;20.00;57.40;;;;;;4996218;28;20450;-77
2022/07/28 01:28:09;;;;;;;3.13;1.48;;;19.90;57.20;;;;;;4996268;28;20030;-77
2022/07/28 01:30:52;;;;;;;2.42;1.40;;;19.90;57.40;;;;;;4996392;28;20382;-77
2022/07/28 01:33:25;;;;;;;4.22;1.17;;;19.90;57.50;;;;;;4995615;28;20041;-78
2022/07/28 01:36:01;;;;;;;5.00;1.60;;;20.00;57.20;;;;;;4996266;28;20397;-77
2022/07/28 01:38:30;;;;;;;3.60;1.40;;;19.90;57.40;;;;;;4994034;28;20401;-77
2022/07/28 01:40:57;;;;;;;4.30;1.48;;;19.90;57.80;;;;;;4995780;28;20027;-77
2022/07/28 01:43:25;;;;;;;6.95;1.50;;;19.90;57.80;;;;;;4995923;28;20027;-77
2022/07/28 01:45:53;;;;;;;4.18;1.40;;;19.80;57.50;;;;;;4995710;28;20499;-78
2022/07/28 01:48:24;;;;;;;4.03;1.67;;;19.80;57.90;;;;;;5011219;28;20030;-77
2022/07/28 01:50:53;;;;;;;3.22;1.80;;;19.80;57.90;;;;;;4996052;28;20034;-77
2022/07/28 01:53:32;;;;;;;;;;;;;;;;;;;;;
2022/07/28 01:56:02;;;;;;;4.05;1.80;;;19.80;58.20;;;;;;4995660;28;20035;-77
2022/07/28 01:58:29;;;;;;;4.45;1.77;;;19.80;58.20;;;;;;4994605;28;20030;-77
2022/07/28 02:00:57;;;;;;;5.35;2.30;;;19.70;58.00;;;;;;4994613;28;20088;-77
2022/07/28 02:03:24;;;;;;;3.03;1.73;;;19.80;58.80;;;;;;4995633;28;20042;-77
2022/07/28 02:05:52;;;;;;;3.67;1.65;;;19.70;59.00;;;;;;4994474;28;20117;-77
2022/07/28 02:08:20;;;;;;;3.33;1.50;;;19.70;58.70;;;;;;4995885;28;20027;-77
2022/07/28 02:13:34;;;;;;;5.43;1.60;;;19.70;58.50;;;;;;4976199;28;20037;-77
2022/07/28 02:16:03;;;;;;;2.75;1.85;;;19.60;58.40;;;;;;4982929;28;20054;-77
2022/07/28 02:18:31;;;;;;;3.38;1.52;;;19.70;59.00;;;;;;4995587;28;20018;-77
2022/07/28 02:20:58;;;;;;;2.78;1.70;;;19.70;58.70;;;;;;4995766;28;20026;-77
2022/07/28 02:23:26;;;;;;;2.72;1.60;;;19.70;59.00;;;;;;4994392;28;20437;-77
2022/07/28 02:25:55;;;;;;;5.65;1.48;;;19.60;59.00;;;;;;4995189;28;20045;-77
2022/07/28 02:28:21;;;;;;;3.50;1.40;;;19.70;58.60;;;;;;4995864;28;20023;-77
2022/07/28 02:30:54;;;;;;;3.92;1.58;;;19.70;58.90;;;;;;4996011;28;20039;-77
2022/07/28 02:33:27;;;;;;;2.42;1.63;;;19.70;58.70;;;;;;4994539;28;20425;-77
2022/07/28 02:36:18;;;;;;;1.92;1.15;;;19.60;59.30;;;;;;4993524;28;20035;-77
2022/07/28 02:42:12;;;;;;;5.03;1.70;;;19.50;59.00;;;;;;4995353;28;20037;-78
2022/07/28 02:45:01;;;;;;;4.00;1.70;;;19.60;59.20;;;;;;5007048;28;20109;-77
2022/07/28 02:47:31;;;;;;;6.20;1.90;;;19.50;58.90;;;;;;4991264;28;20026;-78
2022/07/28 02:50:00;;;;;;;4.97;1.77;;;19.50;59.70;;;;;;4976029;28;20298;-77
2022/07/28 02:52:27;;;;;;;2.90;1.25;;;19.50;59.80;;;;;;4986635;28;20409;-77
2022/07/28 02:54:55;;;;;;;2.22;1.35;;;19.40;59.60;;;;;;4998917;28;20033;-77
2022/07/28 02:57:21;;;;;;;4.60;1.85;;;19.40;59.90;;;;;;4999028;28;20014;-77
2022/07/28 02:59:49;;;;;;;3.13;1.63;;;19.40;59.70;;;;;;4999236;28;20482;-78
2022/07/28 03:02:18;;;;;;;2.38;1.60;;;19.40;59.40;;;;;;4998695;28;20061;-77
2022/07/28 03:05:03;;;;;;;3.08;1.38;;;19.40;59.60;;;;;;5014151;28;20026;-77
2022/07/28 03:07:35;;;;;;;4.82;1.50;;;19.30;60.10;;;;;;4999035;28;20401;-77
2022/07/28 03:10:02;;;;;;;3.40;1.70;;;19.30;59.80;;;;;;5012556;28;20023;-77
2022/07/28 03:12:28;;;;;;;2.72;1.90;;;19.20;60.40;;;;;;4998446;28;20030;-78
2022/07/28 03:14:54;;;;;;;2.63;1.70;;;19.10;60.50;;;;;;4998710;28;20186;-77
2022/07/28 03:17:20;;;;;;;6.22;1.70;;;19.10;60.70;;;;;;4998310;28;20058;-77
2022/07/28 03:19:46;;;;;;;3.38;1.75;;;19.00;60.80;;;;;;4997377;28;20034;-78
2022/07/28 03:22:12;;;;;;;3.55;1.80;;;19.00;60.90;;;;;;4998716;28;20029;-78
2022/07/28 03:24:49;;;;;;;3.85;1.70;;;19.00;60.80;;;;;;5009919;28;20058;-77
2022/07/28 03:27:37;;;;;;;5.85;1.52;;;19.00;61.30;;;;;;5013817;28;20023;-77
2022/07/28 03:30:12;;;;;;;3.58;1.77;;;19.10;61.20;;;;;;4998532;28;20022;-77
2022/07/28 03:32:45;;;;;;;3.22;2.15;;;19.10;60.70;;;;;;4998140;28;20030;-77
2022/07/28 03:35:12;;;;;;;3.10;1.52;;;19.10;61.10;;;;;;4998443;28;20057;-77
2022/07/28 03:37:45;;;;;;;4.28;1.83;;;19.10;61.50;;;;;;4998371;28;20549;-77
2022/07/28 03:40:12;;;;;;;3.13;1.60;;;19.20;61.10;;;;;;4998472;28;20022;-77
2022/07/28 03:42:41;;;;;;;2.33;1.80;;;19.10;61.30;;;;;;4998172;28;20026;-77
2022/07/28 03:45:07;;;;;;;4.85;2.22;;;19.10;60.90;;;;;;4997718;28;20465;-77
2022/07/28 03:47:35;;;;;;;4.13;1.63;;;19.20;60.90;;;;;;5005238;28;20076;-77
2022/07/28 03:50:01;;;;;;;3.85;1.90;;;19.10;61.20;;;;;;4998159;28;20037;-78
2022/07/28 03:52:27;;;;;;;5.50;2.05;;;19.10;61.60;;;;;;4998081;28;20023;-77
2022/07/28 03:54:52;;;;;;;2.67;1.45;;;19.00;61.70;;;;;;4996563;28;20085;-77
2022/07/28 03:57:18;;;;;;;7.40;1.90;;;19.00;61.50;;;;;;4997938;28;20025;-77
2022/07/28 03:59:44;;;;;;;4.50;1.88;;;19.00;61.30;;;;;;4997902;28;20421;-77
2022/07/28 04:02:09;;;;;;;4.97;1.77;;;19.00;61.50;;;;;;4997362;28;20041;-77
2022/07/28 04:04:36;;;;;;;5.13;1.83;;;19.00;61.60;;;;;;4996800;28;20034;-77
2022/07/28 04:07:01;;;;;;;2.42;1.45;;;19.00;61.40;;;;;;4997623;28;20432;-77
2022/07/28 04:09:27;;;;;;;3.38;2.17;;;19.00;61.60;;;;;;4996939;28;20039;-77
2022/07/28 04:11:53;;;;;;;5.32;1.77;;;18.90;61.90;;;;;;5013036;28;20084;-77
2022/07/28 04:14:18;;;;;;;5.10;1.70;;;18.90;61.90;;;;;;4997260;28;20042;-77
2022/07/28 04:16:44;;;;;;;5.72;1.70;;;18.90;62.00;;;;;;4996358;28;20047;-77
2022/07/28 04:19:10;;;;;;;3.47;1.90;;;18.90;62.10;;;;;;4997744;28;20026;-77
2022/07/28 04:21:53;;;;;;;3.03;1.67;;;18.80;62.10;;;;;;4997678;28;20044;-77
2022/07/28 04:24:18;;;;;;;6.28;1.83;;;18.90;62.20;;;;;;4996581;28;20038;-77
2022/07/28 04:26:44;;;;;;;3.65;1.67;;;18.80;62.20;;;;;;4997345;28;20492;-77
2022/07/28 04:29:10;;;;;;;4.22;1.67;;;18.80;62.70;;;;;;4996161;28;20056;-77
2022/07/28 04:31:35;;;;;;;2.60;1.50;;;18.80;62.70;;;;;;4997754;28;20082;-77
2022/07/28 04:34:01;;;;;;;2.53;1.70;;;18.80;62.70;;;;;;4996772;28;20101;-77
2022/07/28 04:36:27;;;;;;;7.57;2.00;;;18.80;62.80;;;;;;4997353;28;20481;-77
2022/07/28 04:38:53;;;;;;;4.80;1.60;;;18.70;62.70;;;;;;4997355;28;20031;-77
2022/07/28 04:41:18;;;;;;;3.28;1.63;;;18.80;62.70;;;;;;4997260;28;20026;-77
2022/07/28 04:43:44;;;;;;;7.45;2.17;;;18.80;62.80;;;;;;4995971;28;20066;-77
2022/07/28 04:46:09;;;;;;;5.25;2.10;;;18.80;62.60;;;;;;4997196;28;20113;-77
2022/07/28 04:48:35;;;;;;;6.28;1.88;;;18.70;63.00;;;;;;4997060;28;20031;-77
2022/07/28 04:51:01;;;;;;;4.40;1.85;;;18.80;63.10;;;;;;4996817;28;20038;-77
2022/07/28 04:53:28;;;;;;;3.95;1.65;;;18.70;62.60;;;;;;4997137;28;20038;-77
2022/07/28 04:55:56;;;;;;;4.57;1.90;;;18.70;63.00;;;;;;4997027;28;20023;-77
2022/07/28 04:58:23;;;;;;;3.58;1.77;;;18.60;63.30;;;;;;4996876;28;20054;-78
2022/07/28 05:00:48;;;;;;;2.58;1.75;;;18.60;63.40;;;;;;4996383;28;20073;-77
2022/07/28 05:03:14;;;;;;;3.03;1.80;;;18.60;63.10;;;;;;4996318;28;20027;-77
2022/07/28 05:05:39;;;;;;;4.43;1.92;;;18.60;63.20;;;;;;4996137;28;20109;-77
2022/07/28 05:08:05;;;;;;;4.97;1.90;;;18.60;63.40;;;;;;4996623;28;20026;-77
2022/07/28 05:10:31;;;;;;;5.28;2.00;;;18.60;63.10;;;;;;4996723;28;20034;-77
2022/07/28 05:12:56;;;;;;;3.50;1.83;;;18.60;63.60;;;;;;4995386;28;20401;-77
2022/07/28 05:15:22;;;;;;;7.10;2.42;;;18.60;63.80;;;;;;4995138;28;20070;-77
2022/07/28 05:17:48;;;;;;;7.28;2.30;;;18.70;63.90;;;;;;4995957;28;20117;-77
2022/07/28 05:20:14;;;;;;;3.03;1.83;;;18.80;63.80;;;;;;4996497;28;20114;-77
2022/07/28 05:22:49;;;;;;;7.38;1.67;;;18.80;63.30;;;;;;4996135;28;20085;-77
2022/07/28 05:25:23;;;;;;;3.25;1.85;;;18.80;63.70;;;;;;5010307;28;20061;-77
2022/07/28 05:27:49;;;;;;;3.10;1.77;;;18.80;64.00;;;;;;4994938;28;20153;-77
2022/07/28 05:30:16;;;;;;;5.63;2.15;;;18.90;63.70;;;;;;4995825;28;20030;-79
2022/07/28 05:32:44;;;;;;;4.30;1.92;;;19.00;63.40;;;;;;4996437;28;20062;-78
2022/07/28 05:35:10;;;;;;;6.20;1.95;;;19.00;63.20;;;;;;4996284;28;20030;-79
2022/07/28 05:37:36;;;;;;;4.18;1.65;;;19.00;63.40;;;;;;4995786;28;20106;-79
2022/07/28 05:40:13;;;;;;;4.80;2.22;;;19.10;63.00;;;;;;4995672;28;20035;-79
2022/07/28 05:42:41;;;;;;;6.97;2.40;;;19.10;63.40;;;;;;4996276;28;20440;-79
2022/07/28 05:45:09;;;;;;;5.85;2.05;;;19.10;63.10;;;;;;4996174;28;20834;-79
2022/07/28 05:48:01;;;;;;;4.50;1.50;;;19.10;62.90;;;;;;4995608;28;20026;-79
2022/07/28 05:50:26;;;;;;;34.72;4.57;;;19.10;62.90;;;;;;4995041;28;20031;-79
2022/07/28 05:52:52;;;;;;;14.57;2.70;;;19.10;63.20;;;;;;4995488;28;20529;-78
2022/07/28 05:55:18;;;;;;;4.45;1.55;;;19.20;63.50;;;;;;4996272;28;20019;-79
2022/07/28 05:57:44;;;;;;;6.40;1.75;;;19.20;63.20;;;;;;4995719;28;20035;-79
2022/07/28 06:00:13;;;;;;;4.50;1.67;;;19.30;63.00;;;;;;4995764;28;20027;-79
2022/07/28 06:02:40;;;;;;;3.00;1.80;;;19.30;62.90;;;;;;4995390;28;20038;-79
2022/07/28 06:05:07;;;;;;;3.83;2.10;;;19.30;62.90;;;;;;4996281;28;20040;-79
2022/07/28 06:07:33;;;;;;;4.85;1.80;;;19.30;62.80;;;;;;4995905;28;20293;-79
2022/07/28 06:09:59;;;;;;;2.83;1.65;;;19.40;62.40;;;;;;4995330;28;20410;-79
2022/07/28 06:12:24;;;;;;;32.13;3.92;;;19.50;62.50;;;;;;4995617;28;20089;-79
2022/07/28 06:14:50;;;;;;;8.18;2.13;;;19.50;62.80;;;;;;4995797;28;20042;-79
2022/07/28 06:17:16;;;;;;;3.50;1.75;;;19.60;62.60;;;;;;5009842;28;20052;-79
2022/07/28 06:19:42;;;;;;;10.48;2.20;;;19.50;62.90;;;;;;4995158;28;20157;-79
2022/07/28 06:22:09;;;;;;;2.78;1.67;;;19.50;62.90;;;;;;4990985;28;20031;-79
2022/07/28 06:24:35;;;;;;;4.40;1.70;;;19.60;62.80;;;;;;4990846;28;20109;-79
2022/07/28 06:27:01;;;;;;;4.15;1.85;;;19.50;62.60;;;;;;4999914;28;20018;-79
2022/07/28 06:29:28;;;;;;;4.82;2.08;;;19.60;62.60;;;;;;4999273;28;20022;-78
2022/07/28 06:31:54;;;;;;;4.15;2.25;;;19.60;63.20;;;;;;4998734;28;20014;-79
2022/07/28 06:34:19;;;;;;;3.83;2.28;;;19.80;62.70;;;;;;4999262;28;20036;-79
2022/07/28 06:36:45;;;;;;;6.32;2.05;;;19.90;62.20;;;;;;4999281;28;20053;-79
2022/07/28 06:39:11;;;;;;;3.13;1.90;;;20.00;61.30;;;;;;4999338;28;20080;-79
2022/07/28 06:41:43;;;;;;;5.07;1.73;;;20.20;62.10;;;;;;4998461;28;20397;-79
2022/07/28 06:44:09;;;;;;;6.55;1.77;;;20.20;62.20;;;;;;4998920;28;20477;-79
2022/07/28 06:46:35;;;;;;;2.78;1.67;;;20.30;62.00;;;;;;4998982;28;20026;-79
2022/07/28 06:49:02;;;;;;;5.47;1.50;;;20.30;62.40;;;;;;5014880;28;20034;-79
2022/07/28 06:51:28;;;;;;;4.75;1.65;;;20.30;62.10;;;;;;4999429;28;20547;-79
2022/07/28 06:53:54;;;;;;;8.57;2.78;;;20.40;61.80;;;;;;4998258;28;20038;-79
2022/07/28 06:56:20;;;;;;;2.40;1.60;;;20.50;61.60;;;;;;4997969;28;20029;-79
2022/07/28 06:58:46;;;;;;;4.53;1.98;;;20.50;61.40;;;;;;5012988;28;20058;-79
2022/07/28 07:01:13;;;;;;;4.20;2.10;;;20.60;61.00;;;;;;4998064;28;20046;-79
2022/07/28 07:03:39;;;;;;;4.00;1.83;;;20.70;61.00;;;;;;4998578;28;20042;-79
2022/07/28 07:06:05;;;;;;;3.60;1.73;;;20.70;60.80;;;;;;4999116;28;20023;-79
2022/07/28 07:08:31;;;;;;;4.20;1.75;;;20.70;61.00;;;;;;4998997;28;20030;-79
2022/07/28 07:10:57;;;;;;;3.25;1.80;;;20.80;61.10;;;;;;4998384;28;20799;-79
2022/07/28 07:13:23;;;;;;;3.38;1.80;;;20.80;61.10;;;;;;4998260;28;20104;-79
2022/07/28 07:15:49;;;;;;;2.85;1.50;;;20.80;61.20;;;;;;4998944;28;20058;-79
2022/07/28 07:18:15;;;;;;;4.25;1.70;;;20.80;61.70;;;;;;4998790;28;20026;-79
2022/07/28 07:20:40;;;;;;;3.20;1.75;;;20.90;61.30;;;;;;4998405;28;20033;-79
2022/07/28 07:23:06;;;;;;;2.65;1.20;;;21.00;60.80;;;;;;4998845;28;20838;-79
2022/07/28 07:25:31;;;;;;;7.47;2.25;;;21.30;60.10;;;;;;4999060;28;20049;-79
2022/07/28 07:27:57;;;;;;;4.32;1.60;;;21.60;59.70;;;;;;4998100;28;20031;-79
2022/07/28 07:30:23;;;;;;;4.70;1.80;;;21.90;59.00;;;;;;4998630;28;20033;-79
2022/07/28 07:32:48;;;;;;;3.88;1.35;;;22.30;58.40;;;;;;4998005;28;20100;-79
2022/07/28 07:35:14;;;;;;;2.80;1.27;;;22.90;56.50;;;;;;4998432;28;20529;-79
2022/07/28 07:37:40;;;;;;;5.72;1.60;;;22.80;56.30;;;;;;4996697;28;20084;-79
2022/07/28 07:40:06;;;;;;;3.75;1.42;;;22.60;56.80;;;;;;4998454;28;20083;-79
2022/07/28 07:42:32;;;;;;;6.18;1.77;;;22.40;57.10;;;;;;4997663;28;20034;-79
2022/07/28 07:44:58;;;;;;;2.95;1.42;;;22.30;57.20;;;;;;4998465;28;20030;-79
2022/07/28 07:47:24;;;;;;;3.47;1.73;;;22.30;57.30;;;;;;4997807;28;20026;-79
2022/07/28 07:49:50;;;;;;;3.63;1.65;;;22.30;57.40;;;;;;4997717;28;20030;-79
2022/07/28 07:52:16;;;;;;;3.58;1.67;;;22.30;57.50;;;;;;4996708;28;20094;-79
2022/07/28 07:54:42;;;;;;;4.65;1.63;;;22.30;57.20;;;;;;4998387;28;20557;-79
2022/07/28 07:57:08;;;;;;;2.42;1.30;;;22.20;57.60;;;;;;4996352;28;20556;-79
2022/07/28 07:59:35;;;;;;;3.75;1.67;;;22.20;57.50;;;;;;4998071;28;20026;-79
2022/07/28 08:02:00;;;;;;;4.75;1.38;;;22.10;58.00;;;;;;4996492;28;20034;-79
2022/07/28 08:04:26;;;;;;;4.55;1.55;;;22.10;57.60;;;;;;4996637;28;20469;-79
2022/07/28 08:06:52;;;;;;;2.25;1.30;;;22.30;57.50;;;;;;4998262;28;20073;-79
2022/07/28 08:09:19;;;;;;;2.10;1.40;;;22.30;57.00;;;;;;4996949;28;20035;-79
2022/07/28 08:11:45;;;;;;;3.55;1.70;;;22.40;57.00;;;;;;4997712;28;20026;-79
2022/07/28 08:14:11;;;;;;;3.10;1.60;;;22.50;56.40;;;;;;4996792;28;20022;-78
2022/07/28 08:16:36;;;;;;;2.40;1.23;;;22.70;56.50;;;;;;4997163;28;20691;-78
2022/07/28 08:19:02;;;;;;;4.00;1.50;;;23.00;55.50;;;;;;5012951;28;20031;-79
2022/07/28 08:21:28;;;;;;;2.65;1.48;;;23.40;54.20;;;;;;4997295;28;20034;-79
2022/07/28 08:23:54;;;;;;;3.63;1.00;;;23.80;53.60;;;;;;4996751;28;20902;-78
2022/07/28 08:26:24;;;;;;;4.13;1.50;;;24.20;51.60;;;;;;4996238;28;20057;-79
2022/07/28 08:28:50;;;;;;;5.30;1.20;;;24.60;49.00;;;;;;4996741;28;20035;-79
2022/07/28 08:31:16;;;;;;;3.22;1.30;;;24.90;49.00;;;;;;4997670;28;20037;-79
2022/07/28 08:33:45;;;;;;;2.97;1.40;;;24.80;48.60;;;;;;4995883;28;20409;-79
2022/07/28 08:36:11;;;;;;;3.60;1.20;;;24.70;48.40;;;;;;4997756;28;20042;-78
2022/07/28 08:38:36;;;;;;;3.97;1.23;;;24.70;47.80;;;;;;4995699;28;20087;-78
2022/07/28 08:41:03;;;;;;;3.95;1.38;;;24.80;47.60;;;;;;4997693;28;20081;-79
2022/07/28 08:43:33;;;;;;;7.25;1.58;;;25.20;46.30;;;;;;4997202;28;20041;-79
2022/07/28 08:46:00;;;;;;;2.85;0.98;;;27.40;43.20;;;;;;4996165;28;20034;-79
2022/07/28 08:48:35;;;;;;;3.15;0.93;;;27.60;41.80;;;;;;4995890;28;20080;-79
2022/07/28 08:51:06;;;;;;;3.60;1.23;;;27.80;41.00;;;;;;4997534;28;20022;-79
2022/07/28 08:53:36;;;;;;;8.13;1.58;;;27.70;41.10;;;;;;4996538;28;20038;-79
2022/07/28 08:56:04;;;;;;;3.85;1.13;;;28.00;41.00;;;;;;4997219;28;20026;-79
2022/07/28 08:58:34;;;;;;;1.80;0.95;;;29.80;39.30;;;;;;5012285;28;20038;-79
2022/07/28 09:01:01;;;;;;;5.80;1.58;;;30.70;36.10;;;;;;4996970;28;20023;-80
2022/07/28 09:03:27;;;;;;;2.78;1.05;;;30.90;36.10;;;;;;4995233;28;20033;-78
2022/07/28 09:05:54;;;;;;;3.83;1.00;;;31.10;35.20;;;;;;4995895;28;20022;-78
2022/07/28 09:08:19;;;;;;;4.40;1.15;;;31.30;35.30;;;;;;4996525;28;20031;-78
2022/07/28 09:10:46;;;;;;;4.57;1.40;;;32.30;33.80;;;;;;4995259;28;20100;-78
2022/07/28 09:13:14;;;;;;;4.32;1.15;;;33.50;32.70;;;;;;4995227;28;20038;-78
2022/07/28 09:15:39;;;;;;;2.92;1.10;;;34.50;30.60;;;;;;4996670;28;20062;-78
2022/07/28 09:18:05;;;;;;;5.07;1.35;;;35.40;29.60;;;;;;4996399;28;20370;-78
2022/07/28 09:20:32;;;;;;;2.13;0.98;;;36.00;28.70;;;;;;4996767;28;20496;-78
2022/07/28 09:22:59;;;;;;;2.72;0.88;;;36.70;27.20;;;;;;4996558;28;20063;-78
2022/07/28 09:25:25;;;;;;;2.63;0.98;;;37.40;26.50;;;;;;5011435;28;20046;-78
2022/07/28 09:27:51;;;;;;;1.88;0.70;;;37.50;26.50;;;;;;4996355;28;20065;-79
2022/07/28 09:30:27;;;;;;;4.10;1.30;;;37.30;27.20;;;;;;4995377;28;20481;-79
2022/07/28 09:33:31;;;;;;;2.00;0.80;;;37.60;26.40;;;;;;4996320;28;20037;-79
2022/07/28 09:35:58;;;;;;;2.72;0.80;;;37.60;25.30;;;;;;4996160;28;20035;-79
2022/07/28 09:38:26;;;;;;;2.92;0.88;;;36.00;26.00;;;;;;4996337;28;20069;-78
2022/07/28 09:41:00;;;;;;;2.45;0.80;;;34.90;27.90;;;;;;4996335;28;20030;-80
2022/07/28 09:43:42;;;;;;;1.48;0.77;;;34.30;29.10;;;;;;4995139;28;20552;-78
2022/07/28 09:46:13;;;;;;;2.45;0.80;;;34.10;29.00;;;;;;4995677;28;20037;-78
2022/07/28 09:48:48;;;;;;;3.92;0.98;;;34.60;28.60;;;;;;4996205;28;20511;-78
2022/07/28 09:51:18;;;;;;;5.65;1.38;;;34.80;28.40;;;;;;4996252;28;20481;-78
2022/07/28 09:53:44;;;;;;;2.88;0.82;;;34.20;28.50;;;;;;4996152;28;20373;-78
2022/07/28 09:56:12;;;;;;;4.32;1.05;;;34.30;27.80;;;;;;4995616;28;20069;-78
2022/07/28 09:58:38;;;;;;;1.50;0.70;;;34.10;28.40;;;;;;4995122;28;20673;-78
2022/07/28 10:01:19;;;;;;;1.67;0.77;;;33.80;28.00;;;;;;4995395;28;20577;-78
2022/07/28 10:03:54;;;;;;;1.90;0.90;;;34.00;28.50;;;;;;4996116;28;20061;-78
2022/07/28 10:06:30;;;;;;;2.67;0.98;;;35.30;26.70;;;;;;4995957;28;20022;-78
2022/07/28 10:08:58;;;;;;;2.85;0.60;;;36.90;25.10;;;;;;4995391;28;20042;-78
2022/07/28 10:11:26;;;;;;;3.72;0.90;;;37.70;24.70;;;;;;4996007;28;20018;-78
2022/07/28 10:13:59;;;;;;;2.25;0.80;;;38.20;23.80;;;;;;4995875;28;20040;-79
2022/07/28 10:16:31;;;;;;;3.85;0.70;;;38.60;22.80;;;;;;4995223;28;20053;-78
2022/07/28 10:18:59;;;;;;;2.40;0.82;;;38.00;23.80;;;;;;4994373;28;20085;-78
2022/07/28 10:21:26;;;;;;;2.03;0.70;;;37.20;22.40;;;;;;4995130;28;20033;-78
2022/07/28 10:23:54;;;;;;;2.13;0.75;;;37.70;24.00;;;;;;4994583;28;20034;-78
2022/07/28 10:26:29;;;;;;;5.10;0.82;;;38.20;23.70;;;;;;4995768;28;20065;-78
2022/07/28 10:28:56;;;;;;;5.28;4.78;;;38.30;24.00;;;;;;4995354;28;20042;-78
2022/07/28 10:31:34;;;;;;;4.30;2.25;;;37.50;24.80;;;;;;4995212;28;20034;-78
2022/07/28 10:34:02;;;;;;;15.38;12.65;;;37.80;24.60;;;;;;4995557;28;20030;-78
2022/07/28 10:36:30;;;;;;;5.25;2.00;;;37.30;24.30;;;;;;5010060;28;20031;-78
2022/07/28 10:39:04;;;;;;;4.93;1.20;;;37.00;24.60;;;;;;4995202;28;20457;-78
2022/07/28 10:41:38;;;;;;;2.70;0.80;;;36.40;24.80;;;;;;4994591;28;20301;-78
2022/07/28 10:44:04;;;;;;;1.38;0.98;;;35.50;25.10;;;;;;5000597;28;20510;-78
2022/07/28 10:46:31;;;;;;;2.13;1.00;;;34.30;26.50;;;;;;4995416;28;20028;-78
2022/07/28 10:48:57;;;;;;;3.33;0.65;;;33.90;28.00;;;;;;4995518;28;20034;-78
2022/07/28 10:51:24;;;;;;;2.38;1.00;;;33.50;28.30;;;;;;4993583;28;20031;-78
2022/07/28 10:54:13;;;;;;;2.63;0.82;;;33.20;28.30;;;;;;4993957;28;20034;-78
2022/07/28 10:56:51;;;;;;;2.28;0.90;;;33.00;29.00;;;;;;4995751;28;20057;-78
2022/07/28 10:59:47;;;;;;;3.28;1.70;;;32.80;29.60;;;;;;4995010;28;20030;-78
2022/07/28 11:02:47;;;;;;;10.63;9.52;;;32.60;29.40;;;;;;4976076;28;20026;-78
2022/07/28 11:05:38;;;;;;;4.90;1.60;;;32.40;29.80;;;;;;4975966;28;20081;-78
2022/07/28 11:08:25;;;;;;;9.13;6.25;;;32.30;29.50;;;;;;4978307;28;21127;-78
2022/07/28 11:10:52;;;;;;;3.17;1.42;;;32.10;29.80;;;;;;4995161;28;20082;-78
2022/07/28 11:13:30;;;;;;;5.28;0.90;;;31.90;30.20;;;;;;4998359;28;20054;-78
2022/07/28 11:16:15;;;;;;;7.15;1.20;;;31.80;30.80;;;;;;4998647;28;20054;-77
2022/07/28 11:19:06;;;;;;;2.45;1.00;;;31.90;30.00;;;;;;4998688;28;20057;-78
2022/07/28 11:21:36;;;;;;;2.95;1.45;;;32.20;30.10;;;;;;4997672;28;20026;-78
2022/07/28 11:24:02;;;;;;;3.92;1.38;;;32.30;30.40;;;;;;4998682;28;20026;-77
2022/07/28 11:26:35;;;;;;;2.70;0.70;;;32.50;29.80;;;;;;4997265;28;20405;-77
2022/07/28 11:29:04;;;;;;;3.08;1.05;;;32.60;29.90;;;;;;4998647;28;20397;-78
2022/07/28 11:31:45;;;;;;;6.43;1.15;;;32.80;29.80;;;;;;4998438;28;20030;-78
2022/07/28 11:34:15;;;;;;;1.45;0.70;;;32.70;29.50;;;;;;4997813;28;20053;-77
2022/07/28 11:37:01;;;;;;;3.40;0.73;;;32.40;28.90;;;;;;4998539;28;20025;-78
2022/07/28 11:39:35;;;;;;;2.25;0.93;;;32.20;29.80;;;;;;4997404;28;20580;-77
2022/07/28 11:42:23;;;;;;;1.45;0.70;;;31.90;30.20;;;;;;4997514;28;20026;-78
2022/07/28 11:44:49;;;;;;;2.75;0.93;;;31.80;30.10;;;;;;4997919;28;20030;-78
2022/07/28 11:47:16;;;;;;;3.28;0.80;;;31.80;29.90;;;;;;4998275;28;20739;-77
2022/07/28 11:49:43;;;;;;;3.30;0.60;;;31.60;30.20;;;;;;4997867;28;20038;-77
2022/07/28 11:52:10;;;;;;;2.70;0.73;;;31.30;29.90;;;;;;4997719;28;20027;-77
2022/07/28 11:54:37;;;;;;;1.45;0.73;;;31.20;30.10;;;;;;4996483;28;20022;-77
2022/07/28 11:57:06;;;;;;;3.47;1.25;;;31.20;29.40;;;;;;4998031;28;20173;-78
2022/07/28 11:59:44;;;;;;;1.42;0.65;;;31.20;30.30;;;;;;4996902;28;20046;-78
2022/07/28 12:02:13;;;;;;;3.40;0.90;;;31.10;30.00;;;;;;4993662;28;20031;-78
2022/07/28 12:04:39;;;;;;;1.63;0.50;;;31.10;30.60;;;;;;4997183;28;20113;-78
2022/07/28 12:07:05;;;;;;;3.72;1.17;;;31.10;30.90;;;;;;4997315;28;20066;-78
2022/07/28 12:09:31;;;;;;;3.63;0.77;;;31.10;31.10;;;;;;5012688;28;20030;-77
2022/07/28 12:11:57;;;;;;;1.80;0.98;;;30.90;30.80;;;;;;4997744;28;20105;-78
2022/07/28 12:14:23;;;;;;;2.30;0.90;;;30.80;30.00;;;;;;5009545;28;20502;-78
2022/07/28 12:16:50;;;;;;;2.85;0.85;;;30.50;29.70;;;;;;4979879;28;20097;-77
2022/07/28 12:19:18;;;;;;;2.17;0.70;;;30.10;30.00;;;;;;4997978;28;20556;-78
2022/07/28 12:21:51;;;;;;;1.70;0.80;;;30.10;30.40;;;;;;4997187;28;20280;-78
2022/07/28 12:24:29;;;;;;;2.92;0.88;;;30.00;29.90;;;;;;4996093;28;20031;-79
2022/07/28 12:26:56;;;;;;;2.90;0.70;;;29.80;29.60;;;;;;4996936;28;20545;-80
2022/07/28 12:29:22;;;;;;;1.70;0.90;;;29.70;30.00;;;;;;4997169;28;20090;-79
2022/07/28 12:32:07;;;;;;;1.80;1.02;;;29.80;31.20;;;;;;4997529;28;20146;-78
2022/07/28 12:34:34;;;;;;;1.98;0.80;;;29.80;29.90;;;;;;4977957;28;20027;-80
2022/07/28 12:37:02;;;;;;;3.72;0.82;;;29.90;30.40;;;;;;5001397;28;20045;-80
2022/07/28 12:39:31;;;;;;;1.25;0.70;;;30.10;31.40;;;;;;4997463;28;20521;-79
2022/07/28 12:42:04;;;;;;;1.15;0.70;;;30.30;30.60;;;;;;4997243;28;20029;-79
2022/07/28 12:44:37;;;;;;;5.30;0.82;;;30.20;30.10;;;;;;4997155;28;20031;-79
2022/07/28 12:47:06;;;;;;;2.38;0.90;;;30.30;30.40;;;;;;4996284;28;20034;-79
2022/07/28 12:49:32;;;;;;;2.13;0.80;;;30.40;30.80;;;;;;4997156;28;20025;-80
2022/07/28 12:52:12;;;;;;;3.13;0.82;;;30.60;30.00;;;;;;4996581;28;20046;-79
2022/07/28 12:54:38;;;;;;;1.40;0.60;;;30.60;30.40;;;;;;4997109;28;20031;-79
2022/07/28 12:57:04;;;;;;;2.00;0.77;;;30.30;30.00;;;;;;4995902;28;20085;-79
2022/07/28 12:59:34;;;;;;;4.32;0.98;;;30.40;30.70;;;;;;4996766;28;20481;-79
2022/07/28 13:02:01;;;;;;;1.48;0.70;;;30.60;30.00;;;;;;4996668;28;20408;-79
2022/07/28 13:04:39;;;;;;;1.40;0.63;;;30.80;30.30;;;;;;4996546;28;20110;-79
2022/07/28 13:07:13;;;;;;;2.28;0.73;;;30.90;29.80;;;;;;4976807;28;20600;-77